Time;durP1;ratioP1;P1;durP2;ratioP2;P2;SDS_P1;SDS_P2;PMS_P1;PMS_P2;Temp;Humidity;BMP_temperature;BMP_pressure;BME280_temperature;BME280_humidity;BME280_pressure;Samples;Min_cycle;Max_cycle;Signal;HPM_P1;HPM_P2
2023/11/17 00:00:31;;;;;;;34.73;20.63;;;7.60;92.70;;;;;;768805;187;26516;-87
2023/11/17 00:02:53;;;;;;;33.33;21.00;;;7.60;92.30;;;;;;768356;187;26518;-86
2023/11/17 00:05:21;;;;;;;30.73;20.10;;;7.50;92.40;;;;;;768697;187;26566;-87
2023/11/17 00:07:47;;;;;;;37.37;21.50;;;7.40;92.60;;;;;;768488;187;26504;-87
2023/11/17 00:10:13;;;;;;;34.07;22.13;;;7.40;92.60;;;;;;768493;184;26581;-87
2023/11/17 00:12:41;;;;;;;37.10;22.77;;;7.30;93.00;;;;;;768597;187;26521;-87
2023/11/17 00:15:07;;;;;;;37.33;22.87;;;7.20;92.70;;;;;;768456;187;26544;-87
2023/11/17 00:17:33;;;;;;;42.30;25.60;;;7.20;92.90;;;;;;768364;187;26592;-87
2023/11/17 00:20:00;;;;;;;43.80;24.53;;;7.20;93.10;;;;;;768060;184;27083;-87
2023/11/17 00:22:27;;;;;;;39.80;23.60;;;7.20;93.20;;;;;;768056;187;26543;-87
2023/11/17 00:24:54;;;;;;;40.03;23.93;;;7.10;93.20;;;;;;768101;187;27073;-87
2023/11/17 00:27:20;;;;;;;36.13;22.13;;;7.10;93.30;;;;;;768109;187;26510;-87
2023/11/17 00:29:48;;;;;;;40.83;24.53;;;7.20;93.80;;;;;;768101;184;27064;-86
2023/11/17 00:32:13;;;;;;;39.00;23.03;;;7.20;93.90;;;;;;768024;187;26532;-87
2023/11/17 00:34:40;;;;;;;41.17;23.47;;;7.10;93.90;;;;;;768121;187;26520;-87
2023/11/17 00:37:07;;;;;;;37.77;22.70;;;7.10;93.70;;;;;;768151;187;26528;-86
2023/11/17 00:39:34;;;;;;;38.93;23.83;;;7.10;93.70;;;;;;766465;187;26520;-87
2023/11/17 00:42:01;;;;;;;35.97;22.50;;;7.00;94.20;;;;;;767992;187;26510;-86
2023/11/17 00:44:28;;;;;;;40.13;22.20;;;7.10;94.40;;;;;;769122;185;26483;-87
2023/11/17 00:46:54;;;;;;;37.97;21.73;;;7.20;93.90;;;;;;769337;185;26529;-88
2023/11/17 00:49:21;;;;;;;38.17;20.20;;;7.20;94.00;;;;;;768851;180;26545;-87
2023/11/17 00:51:48;;;;;;;37.50;19.90;;;7.20;94.00;;;;;;768170;184;26510;-87
2023/11/17 00:54:14;;;;;;;34.43;19.23;;;7.10;93.60;;;;;;770152;184;26521;-87
2023/11/17 00:56:40;;;;;;;35.57;20.17;;;7.10;94.00;;;;;;769870;187;26540;-87
2023/11/17 00:59:11;;;;;;;31.97;19.77;;;7.00;94.00;;;;;;769471;187;26511;-87
2023/11/17 01:01:34;;;;;;;30.67;18.23;;;6.90;93.90;;;;;;768995;187;26511;-87
2023/11/17 01:04:00;;;;;;;34.93;19.53;;;6.90;94.40;;;;;;768711;187;28130;-87
2023/11/17 01:06:27;;;;;;;34.10;18.30;;;6.90;94.20;;;;;;768929;184;26520;-87
2023/11/17 01:08:53;;;;;;;33.23;21.70;;;6.80;94.10;;;;;;768958;184;27121;-87
2023/11/17 01:11:20;;;;;;;31.23;19.20;;;6.70;94.10;;;;;;768720;187;26515;-87
2023/11/17 01:13:46;;;;;;;36.50;20.60;;;6.60;94.10;;;;;;768534;187;28184;-87
2023/11/17 01:16:16;;;;;;;31.87;20.20;;;6.60;94.50;;;;;;768390;187;26517;-87
2023/11/17 01:18:40;;;;;;;35.90;20.67;;;6.60;94.90;;;;;;768348;184;26561;-87
2023/11/17 01:21:06;;;;;;;35.40;18.90;;;6.60;95.20;;;;;;768527;187;26546;-86
2023/11/17 01:23:33;;;;;;;33.77;19.23;;;6.60;94.80;;;;;;768290;187;26506;-87
2023/11/17 01:25:59;;;;;;;31.80;18.97;;;6.50;94.80;;;;;;768327;187;26536;-87
2023/11/17 01:28:26;;;;;;;28.00;18.10;;;6.50;95.00;;;;;;768441;184;26510;-86
2023/11/17 01:30:53;;;;;;;29.43;18.63;;;6.40;95.30;;;;;;767924;187;26545;-87
2023/11/17 01:33:19;;;;;;;26.00;18.40;;;6.40;95.10;;;;;;768149;187;26537;-87
2023/11/17 01:35:46;;;;;;;30.47;18.33;;;6.40;95.30;;;;;;767972;187;26516;-87
2023/11/17 01:38:12;;;;;;;31.37;19.10;;;6.30;95.10;;;;;;768104;187;26511;-87
2023/11/17 01:40:39;;;;;;;27.27;17.73;;;6.30;95.40;;;;;;768022;185;27081;-87
2023/11/17 01:43:06;;;;;;;30.43;18.37;;;6.30;95.50;;;;;;767885;187;26682;-87
2023/11/17 01:45:33;;;;;;;26.80;17.37;;;6.30;95.40;;;;;;768139;187;27012;-87
2023/11/17 01:48:00;;;;;;;27.07;16.93;;;6.30;95.50;;;;;;768042;187;26529;-86
2023/11/17 01:50:26;;;;;;;28.10;16.90;;;6.30;95.60;;;;;;767936;187;26512;-86
2023/11/17 01:52:54;;;;;;;29.63;17.97;;;6.30;95.60;;;;;;767666;187;27121;-86
2023/11/17 01:55:19;;;;;;;29.27;17.30;;;6.20;95.60;;;;;;767858;187;26520;-87
2023/11/17 01:57:46;;;;;;;32.83;18.87;;;6.10;95.60;;;;;;767904;187;26509;-87
2023/11/17 02:00:14;;;;;;;26.13;17.37;;;6.20;95.90;;;;;;768034;184;26537;-87
2023/11/17 02:02:44;;;;;;;33.37;19.50;;;6.20;95.70;;;;;;767847;187;26530;-86
2023/11/17 02:05:12;;;;;;;32.97;18.67;;;6.20;95.80;;;;;;769356;185;26500;-86
2023/11/17 02:07:55;;;;;;;28.83;17.33;;;6.20;95.80;;;;;;770147;183;26500;-87
2023/11/17 02:10:29;;;;;;;30.07;18.03;;;6.10;95.80;;;;;;764153;187;27143;-86
2023/11/17 02:12:59;;;;;;;29.83;18.47;;;6.30;96.20;;;;;;770051;187;26516;-87
2023/11/17 02:15:26;;;;;;;29.83;18.30;;;6.20;95.90;;;;;;781961;183;26477;-87
2023/11/17 02:17:54;;;;;;;28.10;17.70;;;6.20;95.90;;;;;;784539;183;26481;-87
2023/11/17 02:20:20;;;;;;;27.83;17.83;;;6.10;95.80;;;;;;784378;180;27107;-86
2023/11/17 02:22:47;;;;;;;30.83;18.77;;;6.10;95.90;;;;;;784355;183;26476;-86
2023/11/17 02:25:15;;;;;;;35.53;19.20;;;6.10;96.00;;;;;;783950;183;26485;-85
2023/11/17 02:27:46;;;;;;;33.63;19.90;;;6.00;95.90;;;;;;783289;180;26823;-86
2023/11/17 02:30:19;;;;;;;31.60;20.17;;;6.10;96.10;;;;;;784253;183;26497;-86
2023/11/17 02:32:39;;;;;;;31.40;20.40;;;6.00;96.10;;;;;;783443;183;26498;-85
2023/11/17 02:35:08;;;;;;;32.40;19.13;;;6.00;96.20;;;;;;784247;180;26507;-86
2023/11/17 02:37:34;;;;;;;33.13;20.90;;;5.90;96.00;;;;;;783884;180;26493;-86
2023/11/17 02:40:18;;;;;;;35.57;21.77;;;5.90;96.20;;;;;;783991;179;26500;-86
2023/11/17 02:42:28;;;;;;;28.70;19.80;;;5.90;96.20;;;;;;781469;183;26490;-86
2023/11/17 02:45:00;;;;;;;39.97;22.87;;;5.80;96.10;;;;;;783522;184;26481;-86
2023/11/17 02:47:27;;;;;;;41.93;23.70;;;5.80;96.30;;;;;;782951;183;26481;-86
2023/11/17 02:49:52;;;;;;;39.37;22.50;;;5.90;96.40;;;;;;782620;184;26649;-86
2023/11/17 02:52:32;;;;;;;39.40;24.93;;;5.80;96.40;;;;;;782834;184;26482;-86
2023/11/17 02:54:55;;;;;;;45.20;25.70;;;5.90;96.70;;;;;;782931;184;26500;-86
2023/11/17 02:57:21;;;;;;;45.30;27.47;;;5.80;96.30;;;;;;783514;183;27033;-87
2023/11/17 02:59:47;;;;;;;45.43;27.67;;;5.80;96.40;;;;;;783528;179;26509;-87
2023/11/17 03:02:15;;;;;;;49.73;28.53;;;5.90;96.70;;;;;;783637;183;27020;-86
2023/11/17 03:04:41;;;;;;;51.60;27.53;;;5.90;96.80;;;;;;783802;183;26485;-87
2023/11/17 03:07:08;;;;;;;41.83;26.20;;;5.80;96.50;;;;;;783721;183;26470;-87
2023/11/17 03:12:31;;;;;;;47.47;26.83;;;5.70;96.50;;;;;;724298;180;26525;-85
2023/11/17 03:15:16;;;;;;;;;;;;;;;;;;;;;
2023/11/17 03:17:52;;;;;;;49.53;28.17;;;5.60;96.40;;;;;;770748;183;26487;-85
2023/11/17 03:20:35;;;;;;;51.33;26.70;;;5.40;96.20;;;;;;761229;185;27100;-84
2023/11/17 03:23:02;;;;;;;42.63;24.50;;;5.40;96.50;;;;;;756155;189;26514;-87
2023/11/17 03:25:39;;;;;;;48.33;26.87;;;5.40;96.70;;;;;;755821;186;26509;-87
2023/11/17 03:28:28;;;;;;;45.47;27.67;;;5.40;96.70;;;;;;754501;187;27072;-87
2023/11/17 03:31:00;;;;;;;60.27;30.43;;;5.40;96.80;;;;;;747552;184;27098;-85
2023/11/17 03:33:29;;;;;;;47.97;28.07;;;5.50;97.00;;;;;;753279;189;26542;-86
2023/11/17 03:36:03;;;;;;;44.47;26.13;;;5.40;96.90;;;;;;752227;188;26556;-87
2023/11/17 03:38:38;;;;;;;50.90;27.07;;;5.40;97.00;;;;;;752501;191;26521;-88
2023/11/17 03:41:22;;;;;;;53.30;28.87;;;5.40;97.10;;;;;;753283;188;26544;-89
2023/11/17 03:43:50;;;;;;;46.67;26.50;;;5.40;97.20;;;;;;754376;187;26551;-87
2023/11/17 03:46:23;;;;;;;54.43;28.93;;;5.40;97.20;;;;;;754798;187;26580;-88
2023/11/17 03:48:58;;;;;;;57.07;28.60;;;5.50;97.30;;;;;;754217;186;26516;-87
2023/11/17 03:51:28;;;;;;;51.37;29.30;;;5.50;97.20;;;;;;754905;190;26540;-85
2023/11/17 03:54:00;;;;;;;42.10;25.73;;;5.50;97.20;;;;;;753967;187;27072;-85
2023/11/17 03:56:37;;;;;;;45.07;24.60;;;5.40;97.00;;;;;;753810;187;26516;-88
2023/11/17 03:59:15;;;;;;;52.40;27.10;;;5.60;97.20;;;;;;753954;187;26634;-87
2023/11/17 04:02:05;;;;;;;;;;;;;;;;;;;;;
2023/11/17 04:04:42;;;;;;;39.00;25.00;;;5.40;96.80;;;;;;753599;190;26564;-90
2023/11/17 04:07:54;;;;;;;;;;;;;;;;;;;;;
2023/11/17 04:10:07;;;;;;;43.33;26.33;;;5.30;97.10;;;;;;750568;187;26575;-88
2023/11/17 04:12:47;;;;;;;47.60;27.07;;;5.30;97.10;;;;;;754085;187;26516;-87
2023/11/17 04:15:38;;;;;;;49.57;28.63;;;5.30;97.00;;;;;;754198;187;26533;-86
2023/11/17 04:18:11;;;;;;;59.50;32.43;;;5.30;97.00;;;;;;754120;187;27123;-85
2023/11/17 04:20:57;;;;;;;63.73;34.17;;;5.40;97.10;;;;;;753967;187;26569;-88
2023/11/17 04:23:50;;;;;;;68.13;35.83;;;5.40;97.10;;;;;;753353;189;27113;-85
2023/11/17 04:26:36;;;;;;;62.33;31.63;;;5.50;97.10;;;;;;745544;189;27085;-86
2023/11/17 04:29:20;;;;;;;46.03;28.07;;;5.60;97.20;;;;;;756166;187;28129;-85
2023/11/17 04:31:59;;;;;;;44.50;26.13;;;5.70;97.30;;;;;;755964;190;28142;-86
2023/11/17 04:34:59;;;;;;;46.03;27.43;;;5.60;97.10;;;;;;755220;187;28195;-86
2023/11/17 04:37:39;;;;;;;41.43;24.67;;;5.70;97.20;;;;;;754963;187;26529;-85
2023/11/17 04:40:20;;;;;;;40.47;25.30;;;5.70;97.20;;;;;;754725;187;26664;-88
2023/11/17 04:43:27;;;;;;;49.03;28.23;;;5.70;97.20;;;;;;754885;187;26528;-85
2023/11/17 04:46:03;;;;;;;49.47;26.27;;;5.70;97.10;;;;;;754840;187;26568;-85
2023/11/17 04:48:55;;;;;;;;;;;;;;;;;;;;;
2023/11/17 04:51:35;;;;;;;45.60;28.03;;;5.70;97.10;;;;;;754258;190;26543;-85
2023/11/17 04:54:14;;;;;;;48.90;27.07;;;5.70;97.00;;;;;;754330;190;26571;-87
2023/11/17 04:56:48;;;;;;;45.80;25.80;;;5.60;96.80;;;;;;743824;190;27118;-87
2023/11/17 04:59:30;;;;;;;43.57;25.50;;;5.60;96.70;;;;;;754296;187;26577;-85
2023/11/17 05:02:17;;;;;;;51.67;26.53;;;5.50;96.50;;;;;;754891;190;26563;-85
2023/11/17 05:04:55;;;;;;;50.10;27.77;;;5.40;96.70;;;;;;753893;190;26505;-86
2023/11/17 05:07:59;;;;;;;55.93;29.17;;;5.40;96.80;;;;;;753794;187;26520;-85
2023/11/17 05:14:02;;;;;;;51.53;27.67;;;5.40;97.10;;;;;;742719;189;27155;-86
2023/11/17 05:16:37;;;;;;;61.70;31.03;;;5.40;97.10;;;;;;752005;187;27040;-85
2023/11/17 05:19:10;;;;;;;56.40;30.30;;;5.40;96.90;;;;;;753908;187;26613;-86
2023/11/17 05:21:46;;;;;;;65.03;32.57;;;5.40;96.90;;;;;;753731;190;27069;-86
2023/11/17 05:24:24;;;;;;;57.50;31.50;;;5.40;96.80;;;;;;753786;190;26569;-85
2023/11/17 05:27:26;;;;;;;67.63;32.20;;;5.40;96.80;;;;;;754020;187;26521;-85
2023/11/17 05:29:49;;;;;;;54.43;28.70;;;5.40;96.90;;;;;;751666;187;26548;-86
2023/11/17 05:32:27;;;;;;;51.73;28.60;;;5.40;96.70;;;;;;753798;190;26550;-85
2023/11/17 05:35:05;;;;;;;;;;;;;;;;;;;;;
2023/11/17 05:37:40;;;;;;;57.27;29.73;;;5.30;96.60;;;;;;753830;190;27026;-86
2023/11/17 05:40:12;;;;;;;57.30;28.40;;;5.30;96.60;;;;;;755644;186;26596;-86
2023/11/17 05:42:45;;;;;;;68.07;33.17;;;5.30;96.50;;;;;;755845;188;26523;-84
2023/11/17 05:45:20;;;;;;;61.87;32.10;;;5.30;96.50;;;;;;755291;187;26528;-84
2023/11/17 05:47:56;;;;;;;61.07;30.57;;;5.40;96.60;;;;;;755119;187;26525;-85
2023/11/17 05:50:33;;;;;;;64.43;30.87;;;5.50;96.90;;;;;;754780;187;26532;-85
2023/11/17 05:53:04;;;;;;;50.10;27.67;;;5.60;97.00;;;;;;754860;190;26574;-85
2023/11/17 05:55:38;;;;;;;48.57;27.23;;;5.70;97.20;;;;;;754712;187;26515;-85
2023/11/17 05:58:27;;;;;;;;;;;;;;;;;;;;;
2023/11/17 06:00:57;;;;;;;52.37;28.43;;;5.90;97.40;;;;;;753665;187;26550;-86
2023/11/17 06:03:44;;;;;;;53.23;27.60;;;6.00;97.40;;;;;;754347;187;26524;-85
2023/11/17 06:06:18;;;;;;;60.83;31.03;;;6.00;97.20;;;;;;754187;187;27128;-86
2023/11/17 06:08:52;;;;;;;59.07;30.33;;;6.00;97.20;;;;;;754375;187;26537;-85
2023/11/17 06:11:42;;;;;;;55.00;27.50;;;6.10;97.30;;;;;;754562;190;26564;-85
2023/11/17 06:14:17;;;;;;;49.43;26.77;;;6.30;97.00;;;;;;754126;187;27111;-89
2023/11/17 06:16:46;;;;;;;51.37;28.57;;;6.30;96.70;;;;;;753800;187;26897;-89
2023/11/17 06:19:50;;;;;;;56.67;28.80;;;6.30;96.70;;;;;;754062;187;26563;-85
2023/11/17 06:22:12;;;;;;;51.93;27.80;;;6.40;96.60;;;;;;747943;187;26551;-85
2023/11/17 06:24:59;;;;;;;55.77;28.40;;;6.50;96.50;;;;;;753891;187;26584;-85
2023/11/17 06:27:34;;;;;;;48.10;26.97;;;6.70;96.40;;;;;;753899;190;26496;-86
2023/11/17 06:30:06;;;;;;;55.93;27.67;;;6.70;95.90;;;;;;753753;187;26583;-85
2023/11/17 06:32:50;;;;;;;49.13;26.80;;;6.60;96.00;;;;;;753742;189;26517;-88
2023/11/17 06:35:16;;;;;;;49.90;28.37;;;6.60;96.00;;;;;;753963;187;26576;-86
2023/11/17 06:37:47;;;;;;;54.87;28.97;;;6.70;96.10;;;;;;753849;189;26572;-86
2023/11/17 06:42:50;;;;;;;56.53;28.37;;;6.60;95.80;;;;;;753988;190;26531;-84
2023/11/17 06:45:30;;;;;;;57.33;30.30;;;6.60;95.60;;;;;;754242;187;26563;-85
2023/11/17 06:48:06;;;;;;;58.73;28.67;;;6.60;95.90;;;;;;753688;190;26513;-86
2023/11/17 06:50:57;;;;;;;58.47;29.47;;;6.60;95.90;;;;;;754055;187;27092;-86
2023/11/17 06:53:24;;;;;;;58.43;29.77;;;6.60;96.00;;;;;;755997;187;27066;-86
2023/11/17 06:55:59;;;;;;;62.43;30.03;;;6.50;95.90;;;;;;755289;187;26517;-85
2023/11/17 06:58:38;;;;;;;70.23;32.27;;;6.50;95.90;;;;;;755223;187;26624;-87
2023/11/17 07:01:06;;;;;;;63.13;30.80;;;6.50;96.20;;;;;;754067;187;26539;-87
2023/11/17 07:03:49;;;;;;;67.37;30.60;;;6.50;96.20;;;;;;754812;187;27051;-87
2023/11/17 07:06:25;;;;;;;70.73;32.57;;;6.40;96.00;;;;;;754859;187;26507;-86
2023/11/17 07:08:58;;;;;;;72.57;33.10;;;6.60;96.20;;;;;;753975;187;27079;-87
2023/11/17 07:11:37;;;;;;;76.10;33.17;;;6.60;96.30;;;;;;754225;190;26578;-86
2023/11/17 07:14:07;;;;;;;59.77;30.10;;;6.70;96.30;;;;;;754297;190;26632;-86
2023/11/17 07:16:36;;;;;;;62.83;31.13;;;6.70;95.90;;;;;;754137;187;26541;-86
2023/11/17 07:19:08;;;;;;;61.23;32.23;;;6.70;96.00;;;;;;754168;187;27056;-86
2023/11/17 07:21:50;;;;;;;67.40;32.33;;;6.60;95.90;;;;;;754311;187;26520;-86
2023/11/17 07:27:14;;;;;;;69.97;33.70;;;6.60;95.90;;;;;;751348;187;26509;-88
2023/11/17 07:29:47;;;;;;;64.53;31.60;;;6.70;96.00;;;;;;753850;187;26611;-87
2023/11/17 07:32:20;;;;;;;69.53;31.67;;;6.60;95.70;;;;;;753926;190;26514;-87
2023/11/17 07:34:45;;;;;;;64.90;32.63;;;6.70;95.70;;;;;;753870;186;27070;-87
2023/11/17 07:37:24;;;;;;;74.13;33.07;;;6.70;95.70;;;;;;753914;187;26520;-86
2023/11/17 07:39:55;;;;;;;64.83;33.40;;;6.80;95.70;;;;;;753970;187;27104;-86
2023/11/17 07:42:39;;;;;;;65.23;33.53;;;6.80;95.70;;;;;;753817;187;26577;-86
2023/11/17 07:45:10;;;;;;;77.53;38.30;;;6.80;95.70;;;;;;752967;189;26561;-85
2023/11/17 07:47:45;;;;;;;61.77;33.83;;;6.90;95.70;;;;;;760909;185;26523;-88
2023/11/17 07:50:15;;;;;;;63.30;32.93;;;6.90;95.60;;;;;;753130;187;26552;-87
2023/11/17 07:52:47;;;;;;;67.07;32.07;;;6.90;94.90;;;;;;761087;189;27044;-87
2023/11/17 07:55:15;;;;;;;61.90;32.33;;;7.00;95.40;;;;;;761649;187;26500;-87
2023/11/17 07:58:05;;;;;;;63.87;33.60;;;7.00;94.90;;;;;;761699;184;27035;-87
2023/11/17 08:00:38;;;;;;;69.40;33.87;;;7.00;94.90;;;;;;761924;184;26520;-88
2023/11/17 08:03:06;;;;;;;60.33;33.63;;;7.10;95.30;;;;;;754946;188;26504;-86
2023/11/17 08:05:39;;;;;;;70.43;35.97;;;7.00;94.80;;;;;;763047;188;26555;-87
2023/11/17 08:08:16;;;;;;;68.70;34.53;;;7.00;95.00;;;;;;754900;188;26518;-87
2023/11/17 08:10:50;;;;;;;66.97;34.37;;;7.00;95.00;;;;;;755367;187;27296;-90
2023/11/17 08:13:25;;;;;;;69.33;36.37;;;7.00;94.90;;;;;;754652;187;26501;-87
2023/11/17 08:15:54;;;;;;;66.17;34.83;;;7.10;95.20;;;;;;754393;187;26516;-87
2023/11/17 08:18:22;;;;;;;74.13;36.57;;;7.20;95.00;;;;;;754612;187;27340;-89
2023/11/17 08:20:49;;;;;;;70.27;35.33;;;7.30;95.10;;;;;;754552;187;26536;-86
2023/11/17 08:23:20;;;;;;;70.00;36.20;;;7.20;94.50;;;;;;754516;187;27083;-88
2023/11/17 08:25:55;;;;;;;68.80;36.07;;;7.20;94.60;;;;;;754518;190;26500;-88
2023/11/17 08:28:33;;;;;;;72.70;36.87;;;7.30;94.90;;;;;;754508;190;26576;-88
2023/11/17 08:31:12;;;;;;;69.63;35.83;;;7.40;95.00;;;;;;754519;187;26630;-87
2023/11/17 08:33:45;;;;;;;72.17;37.17;;;7.50;94.70;;;;;;754285;187;26595;-87
2023/11/17 08:36:29;;;;;;;;;;;;;;;;;;;;;
2023/11/17 08:39:32;;;;;;;67.90;33.53;;;7.60;94.40;;;;;;754368;187;26570;-87
2023/11/17 08:41:58;;;;;;;71.87;34.80;;;7.60;94.10;;;;;;752944;190;26554;-87
2023/11/17 08:47:19;;;;;;;57.63;32.10;;;7.70;94.40;;;;;;754084;187;26504;-87
2023/11/17 08:50:09;;;;;;;58.57;33.27;;;7.80;94.40;;;;;;754010;187;26536;-88
2023/11/17 08:55:18;;;;;;;61.30;33.23;;;7.90;94.00;;;;;;753746;187;27092;-85
2023/11/17 09:01:07;;;;;;;56.63;33.90;;;8.00;93.40;;;;;;738804;190;26642;-88
2023/11/17 09:03:42;;;;;;;59.33;33.03;;;8.00;93.20;;;;;;738941;194;26546;-87
2023/11/17 09:08:58;;;;;;;56.33;32.73;;;8.00;93.10;;;;;;754057;187;26569;-86
2023/11/17 09:11:33;;;;;;;57.73;33.50;;;8.10;92.70;;;;;;754247;190;26517;-89
2023/11/17 09:14:16;;;;;;;60.20;32.83;;;8.10;92.50;;;;;;754655;187;27174;-88
2023/11/17 09:16:44;;;;;;;64.67;34.03;;;8.20;93.00;;;;;;756150;187;27104;-86
2023/11/17 09:19:16;;;;;;;62.07;33.47;;;8.20;93.20;;;;;;755820;187;27141;-87
2023/11/17 09:21:46;;;;;;;64.67;33.93;;;8.30;93.10;;;;;;755524;190;26571;-87
2023/11/17 09:24:54;;;;;;;61.97;34.10;;;8.30;93.30;;;;;;755062;187;26551;-87
2023/11/17 09:27:34;;;;;;;58.73;32.67;;;8.30;93.30;;;;;;753451;187;26546;-88
2023/11/17 09:30:01;;;;;;;59.83;32.57;;;8.30;93.60;;;;;;761928;185;27076;-88
2023/11/17 09:32:29;;;;;;;56.60;32.63;;;8.40;93.40;;;;;;755067;186;26541;-86
2023/11/17 09:34:56;;;;;;;61.50;32.17;;;8.40;93.70;;;;;;754556;187;27918;-90
2023/11/17 09:37:35;;;;;;;63.53;35.33;;;8.30;93.20;;;;;;754899;187;26555;-87
2023/11/17 09:40:50;;;;;;;64.23;34.47;;;8.40;94.00;;;;;;754670;187;27096;-86
2023/11/17 09:45:51;;;;;;;68.17;34.63;;;8.30;93.60;;;;;;765120;188;26487;-88
2023/11/17 09:48:25;;;;;;;61.83;33.30;;;8.30;93.90;;;;;;762193;187;26518;-87
2023/11/17 09:51:02;;;;;;;67.83;33.93;;;8.30;94.40;;;;;;762037;185;26520;-88
2023/11/17 09:53:42;;;;;;;70.67;34.07;;;8.30;95.00;;;;;;761302;187;27094;-88
2023/11/17 09:59:17;;;;;;;59.73;33.23;;;8.30;94.70;;;;;;751937;187;27100;-88
2023/11/17 10:01:59;;;;;;;68.97;34.63;;;8.40;94.20;;;;;;761128;187;26525;-87
2023/11/17 10:07:27;;;;;;;69.00;35.13;;;8.30;94.40;;;;;;761713;187;27086;-88
2023/11/17 10:10:18;;;;;;;71.07;36.67;;;8.40;94.70;;;;;;751788;188;26659;-88
2023/11/17 10:15:55;;;;;;;69.43;34.90;;;8.30;94.60;;;;;;761745;185;26497;-88
2023/11/17 10:18:37;;;;;;;63.60;33.47;;;8.40;95.20;;;;;;761748;187;27043;-87
2023/11/17 10:21:16;;;;;;;70.60;35.30;;;8.50;95.00;;;;;;761650;185;26627;-88
2023/11/17 10:23:53;;;;;;;64.40;35.40;;;8.50;94.80;;;;;;747800;191;26514;-88
2023/11/17 10:26:36;;;;;;;;;;;;;;;;;;;;;
2023/11/17 10:29:18;;;;;;;60.83;33.53;;;8.50;94.50;;;;;;755014;187;26539;-88
2023/11/17 10:32:03;;;;;;;67.70;35.00;;;8.40;94.20;;;;;;765055;186;26546;-88
2023/11/17 10:40:34;;;;;;;65.10;34.03;;;8.50;94.70;;;;;;754659;187;26525;-88
2023/11/17 10:43:43;;;;;;;62.90;35.40;;;8.40;94.90;;;;;;762142;188;27065;-88
2023/11/17 10:55:01;;;;;;;63.87;35.70;;;8.60;95.20;;;;;;754678;187;26566;-89
2023/11/17 11:00:32;;;;;;;;;;;;;;;;;;;;;
2023/11/17 11:03:10;;;;;;;64.33;34.80;;;8.80;95.30;;;;;;754167;187;27058;-89
2023/11/17 11:05:59;;;;;;;68.30;36.47;;;8.80;95.00;;;;;;754177;187;26519;-88
2023/11/17 11:16:57;;;;;;;66.13;34.47;;;8.80;95.40;;;;;;760752;185;33052;-88
2023/11/17 11:19:49;;;;;;;61.17;34.77;;;8.90;95.50;;;;;;761187;185;27365;-91
2023/11/17 11:22:44;;;;;;;67.03;35.53;;;8.90;95.10;;;;;;745909;191;27163;-88
2023/11/17 11:28:16;;;;;;;66.37;35.60;;;8.90;95.50;;;;;;750857;191;26513;-89
2023/11/17 11:36:19;;;;;;;64.37;34.67;;;9.10;95.00;;;;;;750976;191;27044;-88
2023/11/17 11:50:04;;;;;;;58.37;32.33;;;9.20;94.70;;;;;;724195;195;26599;-89
2023/11/17 11:52:52;;;;;;;72.67;35.27;;;9.20;94.90;;;;;;740139;189;27146;-90
2023/11/17 11:55:46;;;;;;;;;;;;;;;;;;;;;
2023/11/17 12:07:03;;;;;;;58.30;31.67;;;9.10;96.00;;;;;;769559;186;26496;-90
2023/11/17 12:23:36;;;;;;;56.20;29.70;;;9.10;95.70;;;;;;728393;179;26523;-90
2023/11/17 12:26:08;;;;;;;61.10;31.57;;;9.10;95.70;;;;;;771912;183;27128;-90
2023/11/17 12:31:33;;;;;;;56.83;30.47;;;9.20;96.30;;;;;;737082;178;26485;-90
2023/11/17 12:34:05;;;;;;;51.83;29.60;;;9.30;96.00;;;;;;790796;180;26995;-87
2023/11/17 12:37:00;;;;;;;48.77;27.70;;;9.30;96.20;;;;;;790787;182;26498;-91
2023/11/17 12:39:50;;;;;;;53.90;29.93;;;9.30;95.90;;;;;;790778;180;26533;-90
2023/11/17 12:42:19;;;;;;;44.23;26.30;;;9.10;95.50;;;;;;790750;181;26462;-90
2023/11/17 12:45:05;;;;;;;60.50;31.13;;;9.20;96.10;;;;;;790937;182;26450;-91
2023/11/17 12:51:27;;;;;;;58.63;28.70;;;9.10;96.10;;;;;;791612;180;26497;-91
2023/11/17 12:53:40;;;;;;;56.33;29.20;;;9.20;96.30;;;;;;791069;181;26460;-89
2023/11/17 12:56:09;;;;;;;56.53;29.07;;;9.20;96.40;;;;;;792491;181;26495;-89
2023/11/17 12:58:43;;;;;;;52.17;28.40;;;9.30;96.40;;;;;;792755;180;26518;-89
2023/11/17 13:01:22;;;;;;;53.47;26.03;;;9.30;96.70;;;;;;792285;178;26613;-87
2023/11/17 13:03:59;;;;;;;45.97;24.97;;;9.40;97.00;;;;;;792050;181;26446;-88
2023/11/17 13:06:40;;;;;;;38.23;22.63;;;9.30;96.30;;;;;;791754;181;26967;-86
2023/11/17 13:09:09;;;;;;;45.30;25.27;;;9.30;97.00;;;;;;791656;181;28056;-87
2023/11/17 13:11:52;;;;;;;42.63;25.13;;;9.40;96.80;;;;;;791100;181;26476;-90
2023/11/17 13:14:29;;;;;;;40.83;23.77;;;9.40;96.40;;;;;;791474;180;26463;-88
2023/11/17 13:17:03;;;;;;;45.93;25.67;;;9.50;96.60;;;;;;791906;178;26459;-88
2023/11/17 13:22:07;;;;;;;39.30;23.97;;;9.60;95.90;;;;;;791903;182;26443;-90
2023/11/17 13:24:33;;;;;;;46.57;27.07;;;9.70;95.60;;;;;;791435;181;26484;-88
2023/11/17 13:27:07;;;;;;;46.10;27.40;;;9.60;95.10;;;;;;791108;181;26468;-88
2023/11/17 13:29:31;;;;;;;49.40;27.50;;;9.50;95.80;;;;;;790799;181;26472;-88
2023/11/17 13:32:04;;;;;;;47.73;26.73;;;9.70;96.40;;;;;;790045;181;26478;-88
2023/11/17 13:34:35;;;;;;;44.10;26.47;;;9.70;96.30;;;;;;790575;181;26488;-88
2023/11/17 13:37:14;;;;;;;39.13;23.13;;;9.60;95.70;;;;;;790478;181;26524;-88
2023/11/17 13:39:40;;;;;;;38.07;24.17;;;9.60;95.80;;;;;;790436;180;26464;-88
2023/11/17 13:42:09;;;;;;;37.23;24.27;;;9.60;96.00;;;;;;790627;181;26461;-87
2023/11/17 13:44:33;;;;;;;43.23;25.93;;;9.60;95.00;;;;;;790412;178;26457;-87
2023/11/17 13:47:12;;;;;;;43.23;26.67;;;9.70;94.90;;;;;;790654;178;26509;-87
2023/11/17 13:49:41;;;;;;;41.10;23.93;;;9.20;93.00;;;;;;790344;180;26476;-85
2023/11/17 13:52:11;;;;;;;39.70;24.70;;;9.20;93.40;;;;;;790562;180;26459;-88
2023/11/17 13:57:12;;;;;;;47.83;25.83;;;9.00;93.20;;;;;;786723;181;26440;-87
2023/11/17 13:59:49;;;;;;;40.20;25.00;;;9.00;93.90;;;;;;778254;181;26469;-87
2023/11/17 14:02:15;;;;;;;41.50;24.53;;;9.00;95.10;;;;;;782312;181;26532;-87
2023/11/17 14:04:47;;;;;;;43.20;25.50;;;9.10;94.40;;;;;;793814;181;26997;-88
2023/11/17 14:07:19;;;;;;;38.47;22.73;;;9.00;93.50;;;;;;788725;181;26476;-87
2023/11/17 14:09:45;;;;;;;46.60;25.90;;;9.00;93.80;;;;;;789304;178;27050;-89
2023/11/17 14:12:12;;;;;;;42.50;24.93;;;8.90;93.90;;;;;;790409;180;26452;-86
2023/11/17 14:14:40;;;;;;;41.77;24.80;;;8.90;94.10;;;;;;792482;181;26471;-87
2023/11/17 14:17:13;;;;;;;42.73;25.73;;;9.00;95.30;;;;;;785203;181;26569;-89
2023/11/17 14:19:39;;;;;;;33.07;19.77;;;9.00;94.50;;;;;;774730;185;27039;-86
2023/11/17 14:22:09;;;;;;;39.60;22.90;;;8.90;93.10;;;;;;811220;175;26571;-87
2023/11/17 14:24:42;;;;;;;39.40;24.77;;;8.80;93.50;;;;;;773172;184;26483;-88
2023/11/17 14:27:10;;;;;;;41.93;24.10;;;8.60;93.50;;;;;;806854;175;26960;-86
2023/11/17 14:29:41;;;;;;;42.23;24.43;;;8.60;93.80;;;;;;777707;183;27035;-84
2023/11/17 14:32:04;;;;;;;39.17;24.37;;;8.90;94.20;;;;;;777610;184;27049;-86
2023/11/17 14:34:32;;;;;;;39.90;24.13;;;8.90;93.20;;;;;;779023;183;26494;-88
2023/11/17 14:36:58;;;;;;;42.03;23.97;;;8.80;93.00;;;;;;778522;180;26457;-87
2023/11/17 14:42:00;;;;;;;41.80;25.10;;;8.40;93.90;;;;;;779215;183;26482;-86
2023/11/17 14:44:33;;;;;;;46.20;27.87;;;8.20;93.90;;;;;;776988;180;27061;-86
2023/11/17 14:47:03;;;;;;;45.33;27.07;;;8.20;94.70;;;;;;776249;182;26555;-86
2023/11/17 14:49:31;;;;;;;50.67;28.30;;;8.20;94.50;;;;;;776702;181;26516;-87
2023/11/17 14:52:00;;;;;;;48.27;26.47;;;8.10;94.60;;;;;;776928;182;26982;-86
2023/11/17 14:54:38;;;;;;;54.20;30.60;;;8.00;94.40;;;;;;774391;180;26458;-85
2023/11/17 14:57:11;;;;;;;50.97;28.20;;;8.00;94.70;;;;;;771556;185;26487;-88
2023/11/17 14:59:37;;;;;;;51.97;28.90;;;8.10;95.10;;;;;;810318;175;27053;-85
2023/11/17 15:02:03;;;;;;;44.77;26.10;;;8.40;94.20;;;;;;775148;184;27027;-85
2023/11/17 15:04:31;;;;;;;49.70;27.60;;;8.60;93.90;;;;;;810846;175;26417;-84
2023/11/17 15:07:03;;;;;;;48.83;28.87;;;8.80;93.30;;;;;;777218;182;26477;-85
2023/11/17 15:09:28;;;;;;;52.43;29.03;;;8.60;92.90;;;;;;773285;182;27090;-85
2023/11/17 15:11:55;;;;;;;55.50;30.47;;;8.20;93.30;;;;;;781503;175;26544;-86
2023/11/17 15:14:21;;;;;;;60.13;31.33;;;8.00;93.90;;;;;;766622;187;27064;-87
2023/11/17 15:16:51;;;;;;;53.40;29.90;;;8.00;94.40;;;;;;770000;186;26506;-88
2023/11/17 15:19:19;;;;;;;55.43;30.73;;;7.90;94.20;;;;;;769544;183;26610;-86